createdAt,value
2022-10-13T00:04:58.773Z,101309.31
2022-10-13T00:10:04.248Z,101293.41
2022-10-13T00:15:10.619Z,101285.09
2022-10-13T00:20:14.256Z,101277.25
2022-10-13T00:25:17.964Z,101276.72
2022-10-13T00:30:24.717Z,101280.59
2022-10-13T00:35:28.133Z,101284.72
2022-10-13T00:40:31.560Z,101283.31
2022-10-13T00:45:36.529Z,101280.84
2022-10-13T00:50:42.478Z,101280.28
2022-10-13T00:55:47.416Z,101274.19
2022-10-13T01:00:53.414Z,101281.72
2022-10-13T01:06:14.256Z,101273.84
2022-10-13T01:11:26.458Z,101272.28
2022-10-13T01:16:35.851Z,101269.91
2022-10-13T01:21:44.398Z,101268.59
2022-10-13T01:27:14.770Z,101274.91
2022-10-13T01:32:25.125Z,101263.19
2022-10-13T01:37:30.575Z,101259.56
2022-10-13T01:42:37.367Z,101254.25
2022-10-13T01:47:44.506Z,101252.94
2022-10-13T01:52:48.228Z,101248.69
2022-10-13T01:57:51.603Z,101236.09
2022-10-13T02:03:05.791Z,101238.28
2022-10-13T02:08:13.774Z,101231.88
2022-10-13T02:13:18.888Z,101229.69
2022-10-13T02:18:27.356Z,101225.09
2022-10-13T02:23:31.114Z,101215.44
2022-10-13T02:28:34.576Z,101210.50
2022-10-13T02:33:39.412Z,101209.78
2022-10-13T02:38:42.854Z,101206.03
2022-10-13T02:43:47.449Z,101207.97
2022-10-13T02:48:52.233Z,101210.03
2022-10-13T02:53:55.718Z,101212.91
2022-10-13T02:58:59.155Z,101209.66
2022-10-13T03:04:03.968Z,101211.22
2022-10-13T03:09:07.429Z,101198.53
2022-10-13T03:14:12.188Z,101204.31
2022-10-13T03:19:17.064Z,101194.28
2022-10-13T03:24:20.531Z,101189.56
2022-10-13T03:29:24.143Z,101196.34
2022-10-13T03:34:28.985Z,101184.63
2022-10-13T03:39:32.873Z,101182.22
2022-10-13T03:44:36.326Z,101204.34
2022-10-13T03:49:41.230Z,101189.22
2022-10-13T03:54:44.650Z,101196.22
2022-10-13T03:59:48.089Z,101195.53
2022-10-13T04:04:52.958Z,101196.00
2022-10-13T04:09:56.374Z,101193.81
2022-10-13T04:14:59.769Z,101191.88
2022-10-13T04:20:05.793Z,101195.03
2022-10-13T04:25:10.143Z,101188.50
2022-10-13T04:30:13.810Z,101190.19
2022-10-13T04:35:18.584Z,101180.72
2022-10-13T04:40:21.994Z,101177.84
2022-10-13T04:45:25.399Z,101169.88
2022-10-13T04:50:30.267Z,101164.75
2022-10-13T04:55:37.999Z,101162.59
2022-10-13T05:00:42.356Z,101174.69
2022-10-13T05:05:47.263Z,101165.63
2022-10-13T05:10:57.245Z,101153.63
2022-10-13T05:16:00.649Z,101152.06
2022-10-13T05:21:09.961Z,101150.84
2022-10-13T05:26:16.281Z,101156.06
2022-10-13T05:31:21.486Z,101157.66
2022-10-13T05:36:27.720Z,101157.78
2022-10-13T05:41:31.816Z,101158.47
2022-10-13T05:46:35.455Z,101147.56
2022-10-13T05:51:41.803Z,101146.75
2022-10-13T05:56:48.731Z,101145.41
2022-10-13T06:01:52.604Z,101134.50
2022-10-13T06:06:57.434Z,101126.72
2022-10-13T06:12:00.811Z,101136.91
2022-10-13T06:17:04.453Z,101126.81
2022-10-13T06:22:09.583Z,101126.66
2022-10-13T06:27:13.336Z,101117.28
2022-10-13T06:32:16.773Z,101119.97
2022-10-13T06:37:26.311Z,101119.72
2022-10-13T06:42:31.744Z,101116.31
2022-10-13T06:47:45.226Z,101121.41
2022-10-13T06:52:50.072Z,101121.06
2022-10-13T06:57:53.499Z,101116.03
2022-10-13T07:02:57.086Z,101124.00
2022-10-13T07:08:02.377Z,101114.19
2022-10-13T07:13:06.124Z,101110.63
2022-10-13T07:18:10.900Z,101123.13
2022-10-13T07:23:15.682Z,101134.38
2022-10-13T07:28:19.459Z,101112.41
2022-10-13T07:33:24.022Z,101108.06
2022-10-13T07:38:28.950Z,101112.88
2022-10-13T07:43:32.622Z,101109.66
2022-10-13T07:48:38.176Z,101102.03
2022-10-13T07:53:43.695Z,101098.16
2022-10-13T07:58:48.287Z,101099.00
2022-10-13T08:03:51.832Z,101095.94
2022-10-13T08:08:57.647Z,101092.38
2022-10-13T08:14:01.966Z,101092.97
2022-10-13T08:19:05.402Z,101084.97
2022-10-13T08:24:12.509Z,101066.75
2022-10-13T08:29:21.884Z,101075.69
2022-10-13T08:34:26.986Z,101066.34
2022-10-13T08:39:32.067Z,101073.22
2022-10-13T08:50:05.825Z,101060.88
2022-10-13T08:55:21.402Z,101075.84
2022-10-13T09:00:24.778Z,101068.47
2022-10-13T09:05:37.572Z,101063.19
2022-10-13T09:10:51.638Z,101061.50
2022-10-13T09:15:56.378Z,101054.16
2022-10-13T09:21:21.537Z,101073.63
2022-10-13T09:26:26.469Z,101076.41
2022-10-13T09:31:30.491Z,101083.66
2022-10-13T09:36:34.290Z,101062.34
2022-10-13T09:41:40.433Z,101067.50
2022-10-13T09:46:49.931Z,101060.16
2022-10-13T09:52:00.539Z,101061.28
2022-10-13T09:57:08.028Z,101073.88
2022-10-13T10:02:22.512Z,101063.78
2022-10-13T10:07:31.838Z,101054.13
2022-10-13T10:12:39.060Z,101043.38
2022-10-13T10:17:47.610Z,101040.84
2022-10-13T10:22:55.728Z,101026.75
2022-10-13T10:28:18.124Z,101027.47
2022-10-13T10:33:23.380Z,101032.16
2022-10-13T10:38:34.395Z,101032.53
2022-10-13T10:43:48.884Z,101023.72
2022-10-13T10:48:58.086Z,101020.19
2022-10-13T10:54:14.951Z,101016.25
2022-10-13T10:59:27.823Z,101000.34
2022-10-13T11:04:41.543Z,100981.69
2022-10-13T11:10:05.166Z,100972.25
2022-10-13T11:15:11.936Z,100961.13
2022-10-13T11:20:50.053Z,100951.41
2022-10-13T11:26:31.116Z,100943.88
2022-10-13T11:31:52.991Z,100935.94
2022-10-13T11:36:58.367Z,100937.22
2022-10-13T11:42:09.164Z,100936.19
2022-10-13T11:47:20.952Z,100940.25
2022-10-13T11:52:37.538Z,100922.94
2022-10-13T11:57:40.974Z,100918.13
2022-10-13T12:02:54.179Z,100918.22
2022-10-13T12:08:00.234Z,100918.22
2022-10-13T12:13:04.709Z,100901.16
2022-10-13T12:18:23.760Z,100913.16
2022-10-13T12:23:28.004Z,100901.25
2022-10-13T12:28:44.188Z,100897.84
2022-10-13T12:33:54.993Z,100900.50
2022-10-13T12:39:01.295Z,100892.13
2022-10-13T12:44:06.774Z,100886.44
2022-10-13T12:49:16.763Z,100885.44
2022-10-13T12:54:23.866Z,100894.06
2022-10-13T12:59:29.211Z,100883.03
2022-10-13T13:04:44.657Z,100889.03
2022-10-13T13:10:00.773Z,100887.59
2022-10-13T13:15:29.231Z,100879.94
2022-10-13T13:20:37.769Z,100873.69
2022-10-13T13:25:41.159Z,100874.91
2022-10-13T13:30:45.182Z,100877.44
2022-10-13T13:35:50.004Z,100873.59
2022-10-13T13:40:53.453Z,100859.81
2022-10-13T13:45:56.989Z,100871.00
2022-10-13T13:51:01.971Z,100864.78
2022-10-13T13:56:06.153Z,100863.91
2022-10-13T14:01:09.747Z,100872.63
2022-10-13T14:06:19.759Z,100872.25
2022-10-13T14:11:23.120Z,100864.91
2022-10-13T14:16:26.561Z,100861.63
2022-10-13T14:21:31.903Z,100873.19
2022-10-13T14:26:35.407Z,100863.28
2022-10-13T14:31:38.820Z,100853.75
2022-10-13T14:36:43.663Z,100866.16
2022-10-13T14:41:47.252Z,100854.25
2022-10-13T14:46:50.644Z,100837.88
2022-10-13T14:51:55.451Z,100845.44
2022-10-13T14:57:00.722Z,100842.31
2022-10-13T15:02:04.089Z,100847.59
2022-10-13T15:07:08.919Z,100842.19
2022-10-13T15:12:12.542Z,100836.31
2022-10-13T15:17:15.909Z,100844.16
2022-10-13T15:22:21.207Z,100835.59
2022-10-13T15:27:24.974Z,100839.84
2022-10-13T15:32:28.383Z,100835.16
2022-10-13T15:37:36.116Z,100826.69
2022-10-13T15:42:39.670Z,100820.19
2022-10-13T15:47:43.134Z,100830.38
2022-10-13T15:52:48.086Z,100820.84
2022-10-13T15:57:51.601Z,100821.25
2022-10-13T16:02:55.012Z,100821.25
2022-10-13T16:07:59.842Z,100823.81
2022-10-13T16:13:03.234Z,100832.09
2022-10-13T16:18:06.841Z,100832.44
2022-10-13T16:23:11.674Z,100827.75
2022-10-13T16:28:15.663Z,100822.03
2022-10-13T16:33:19.185Z,100824.22
2022-10-13T16:38:24.082Z,100834.16
2022-10-13T16:43:27.525Z,100832.31
2022-10-13T16:48:31.444Z,100837.50
2022-10-13T16:53:36.761Z,100827.44
2022-10-13T16:58:45.097Z,100826.44
2022-10-13T17:03:50.060Z,100827.22
2022-10-13T17:08:54.918Z,100835.47
2022-10-13T17:13:59.136Z,100835.09
2022-10-13T17:19:07.717Z,100839.44
2022-10-13T17:24:14.051Z,100837.22
2022-10-13T17:29:17.791Z,100831.94
2022-10-13T17:34:22.042Z,100839.13
2022-10-13T17:39:29.443Z,100848.63
2022-10-13T17:44:33.349Z,100844.75
2022-10-13T17:49:38.055Z,100848.41
2022-10-13T17:54:43.229Z,100854.44
2022-10-13T17:59:47.140Z,100846.97
2022-10-13T18:04:50.617Z,100845.72
2022-10-13T18:09:55.382Z,100852.06
2022-10-13T18:14:58.848Z,100851.53
2022-10-13T18:20:02.311Z,100847.72
2022-10-13T18:25:08.527Z,100851.38
2022-10-13T18:30:13.292Z,100848.94
2022-10-13T18:35:16.959Z,100855.53
2022-10-13T18:40:22.236Z,100853.59
2022-10-13T18:45:25.632Z,100855.00
2022-10-13T18:50:29.024Z,100861.28
2022-10-13T18:55:34.641Z,100850.81
2022-10-13T19:00:38.256Z,100846.56
2022-10-13T19:05:41.643Z,100847.44
2022-10-13T19:10:46.419Z,100852.78
2022-10-13T19:15:49.882Z,100854.44
2022-10-13T19:20:53.366Z,100857.66
2022-10-13T19:25:58.482Z,100858.34
2022-10-13T19:31:09.329Z,100860.97
2022-10-13T19:36:21.733Z,100858.66
2022-10-13T19:41:28.440Z,100857.63
2022-10-13T19:46:31.893Z,100850.28
2022-10-13T19:51:35.385Z,100859.44
2022-10-13T19:56:40.289Z,100856.97
2022-10-13T20:01:45.249Z,100866.03
2022-10-13T20:06:51.901Z,100860.00
2022-10-13T20:11:56.867Z,100858.72
2022-10-13T20:17:00.290Z,100852.91
2022-10-13T20:22:03.698Z,100862.72
2022-10-13T20:27:08.462Z,100863.34
2022-10-13T20:32:11.830Z,100867.44
2022-10-13T20:37:15.369Z,100859.22
2022-10-13T20:42:20.097Z,100866.38
2022-10-13T20:47:23.623Z,100866.06
2022-10-13T20:52:27.284Z,100853.38
2022-10-13T20:57:31.995Z,100848.50
2022-10-13T21:02:35.424Z,100840.94
2022-10-13T21:07:39.078Z,100850.59
2022-10-13T21:12:43.803Z,100848.19
2022-10-13T21:17:47.676Z,100852.13
2022-10-13T21:22:51.086Z,100855.50
2022-10-13T21:27:56.639Z,100854.63
2022-10-13T21:33:00.073Z,100847.41
2022-10-13T21:38:03.511Z,100845.03
2022-10-13T21:43:08.850Z,100840.91
2022-10-13T21:48:12.549Z,100847.69
2022-10-13T21:53:16.419Z,100847.31
2022-10-13T21:58:21.147Z,100848.06
2022-10-13T22:03:24.535Z,100843.69
2022-10-13T22:08:37.942Z,100847.03
2022-10-13T22:13:52.700Z,100856.56
2022-10-13T22:18:57.922Z,100849.28
2022-10-13T22:24:03.873Z,100840.19
2022-10-13T22:29:09.735Z,100836.81
2022-10-13T22:34:15.459Z,100839.38
2022-10-13T22:39:18.991Z,100837.47
2022-10-13T22:44:23.704Z,100840.09
2022-10-13T22:49:27.306Z,100841.69
2022-10-13T22:54:30.706Z,100843.84
2022-10-13T22:59:35.615Z,100837.47
2022-10-13T23:04:39.071Z,100832.34
2022-10-13T23:09:42.590Z,100827.56
2022-10-13T23:14:47.377Z,100829.13
2022-10-13T23:19:50.840Z,100821.94
2022-10-13T23:24:54.245Z,100825.03
2022-10-13T23:29:59.190Z,100821.03
2022-10-13T23:35:02.773Z,100817.16
2022-10-13T23:40:10.036Z,100812.16
2022-10-13T23:45:14.903Z,100813.25
2022-10-13T23:50:18.445Z,100806.66
2022-10-13T23:55:21.822Z,100814.31
